E.r.bristol — A8XQ6 — position and weather

sailwx.info

Track history (hours):
 
Tides and Currents Weather Stations Pressure Air Temp Water Temp Dewpoint Dewpoint Depression Visibility Wind Speed Wind Dir Waves Ship Positions

E.r.bristol

Last reported at 2014-Aug-27 00:20 UTC. Time now 2014-Aug-28 09:26 UTC.
Position N 35°57' E 015°38'.

Length 188 m; draft 11.3 m.

Type: Cargo ship. MMSI: 636092151.

Date/timePositionNaut miles runAvg speedWind from/ knotsBaromVisibWave heightAir tempDewpointWater temp
2014-Aug-27 00:20N 35°57' E 015°38'1011.1
2014-Aug-26 23:27N 36°00' E 015°27'1010.9
2014-Aug-26 22:33N 36°04' E 015°15'1110.8
2014-Aug-26 21:33N 36°08' E 015°03'1111.0
2014-Aug-26 20:33N 36°11' E 014°50'1110.7
2014-Aug-26 19:33N 36°14' E 014°37'1310.8
2014-Aug-26 18:19N 36°19' E 014°22'810.7
2014-Aug-26 17:33N 36°21' E 014°12'1110.7
2014-Aug-26 16:31N 36°25' E 013°59'1010.7
2014-Aug-26 15:33N 36°28' E 013°47'1111.0
2014-Aug-26 14:33N 36°32' E 013°34'1111.4
2014-Aug-26 13:33N 36°35' E 013°20'1211.7
2014-Aug-26 12:33N 36°39' E 013°07'1111.4
2014-Aug-26 11:33N 36°43' E 012°53'1411.2
2014-Aug-26 10:19N 36°48' E 012°37'3210.9
2014-Aug-26 07:21N 37°02' E 012°01'910.8
2014-Aug-26 06:32N 37°06' E 011°51'1010.7
2014-Aug-26 05:33N 37°11' E 011°39'1110.6
2014-Aug-26 04:33N 37°15' E 011°27'1010.3
2014-Aug-26 03:33N 37°20' E 011°15'1010.3
2014-Aug-26 02:33N 37°24' E 011°04'1110.7
2014-Aug-26 01:33N 37°26' E 010°50'1110.9
2014-Aug-26 00:33N 37°29' E 010°37'1110.8
2014-Aug-25 23:33N 37°31' E 010°24'1311.0
2014-Aug-25 22:20N 37°33' E 010°07'911.0
2014-Aug-25 21:33N 37°33' E 009°56'1211.0
2014-Aug-25 20:29N 37°30' E 009°42'1011.1
2014-Aug-25 19:33N 37°27' E 009°29'1111.1
2014-Aug-25 18:33N 37°25' E 009°15'1211.2
2014-Aug-25 17:28N 37°22' E 009°00'25210.3
2014-Aug-24 17:04N 37°14' E 003°43'510.3
2014-Aug-24 16:34N 37°13' E 003°37'1510.3
2014-Aug-24 15:06N 37°13' E 003°18'610.2
2014-Aug-24 14:31N 37°12' E 003°10'13610.4
2014-Aug-24 01:21N 36°45' E 000°23'911.9
2014-Aug-24 00:33N 36°43' E 000°12'27011.3
2014-Aug-23 00:33N 35°60' W 005°19'15010.7
2014-Aug-22 10:33N 36°12' W 008°24'1111.1
2014-Aug-22 09:33N 36°14' W 008°38'1311.4
2014-Aug-22 08:26N 36°16' W 008°53'1011.3
2014-Aug-22 07:32N 36°18' W 009°06'1111.2
2014-Aug-22 06:33N 36°20' W 009°19'1111.1
2014-Aug-22 05:32N 36°24' W 009°32'  
Track history (hours):
 
Tides and Currents Weather Stations Pressure Air Temp Water Temp Dewpoint Dewpoint Depression Visibility Wind Speed Wind Dir Waves Ship Positions

E.r.bristol

Last reported at 2014-Aug-27 00:20 UTC. Time now 2014-Aug-28 09:26 UTC.
Position N 35°57' E 015°38'.

Length 188 m; draft 11.3 m.

Type: Cargo ship. MMSI: 636092151.

Date/timePositionNaut miles runAvg speedWind from/ knotsBaromVisibWave heightAir tempDewpointWater temp
2014-Aug-27 00:20N 35°57' E 015°38'1011.1
2014-Aug-26 23:27N 36°00' E 015°27'1010.9
2014-Aug-26 22:33N 36°04' E 015°15'1110.8
2014-Aug-26 21:33N 36°08' E 015°03'1111.0
2014-Aug-26 20:33N 36°11' E 014°50'1110.7
2014-Aug-26 19:33N 36°14' E 014°37'1310.8
2014-Aug-26 18:19N 36°19' E 014°22'810.7
2014-Aug-26 17:33N 36°21' E 014°12'1110.7
2014-Aug-26 16:31N 36°25' E 013°59'1010.7
2014-Aug-26 15:33N 36°28' E 013°47'1111.0
2014-Aug-26 14:33N 36°32' E 013°34'1111.4
2014-Aug-26 13:33N 36°35' E 013°20'1211.7
2014-Aug-26 12:33N 36°39' E 013°07'1111.4
2014-Aug-26 11:33N 36°43' E 012°53'1411.2
2014-Aug-26 10:19N 36°48' E 012°37'3210.9
2014-Aug-26 07:21N 37°02' E 012°01'910.8
2014-Aug-26 06:32N 37°06' E 011°51'1010.7
2014-Aug-26 05:33N 37°11' E 011°39'1110.6
2014-Aug-26 04:33N 37°15' E 011°27'1010.3
2014-Aug-26 03:33N 37°20' E 011°15'1010.3
2014-Aug-26 02:33N 37°24' E 011°04'1110.7
2014-Aug-26 01:33N 37°26' E 010°50'1110.9
2014-Aug-26 00:33N 37°29' E 010°37'1110.8
2014-Aug-25 23:33N 37°31' E 010°24'1311.0
2014-Aug-25 22:20N 37°33' E 010°07'911.0
2014-Aug-25 21:33N 37°33' E 009°56'1211.0
2014-Aug-25 20:29N 37°30' E 009°42'1011.1
2014-Aug-25 19:33N 37°27' E 009°29'1111.1
2014-Aug-25 18:33N 37°25' E 009°15'1211.2
2014-Aug-25 17:28N 37°22' E 009°00'25210.3
2014-Aug-24 17:04N 37°14' E 003°43'510.3
2014-Aug-24 16:34N 37°13' E 003°37'1510.3
2014-Aug-24 15:06N 37°13' E 003°18'610.2
2014-Aug-24 14:31N 37°12' E 003°10'13610.4
2014-Aug-24 01:21N 36°45' E 000°23'911.9
2014-Aug-24 00:33N 36°43' E 000°12'27011.3
2014-Aug-23 00:33N 35°60' W 005°19'15010.7
2014-Aug-22 10:33N 36°12' W 008°24'1111.1
2014-Aug-22 09:33N 36°14' W 008°38'1311.4
2014-Aug-22 08:26N 36°16' W 008°53'1011.3
2014-Aug-22 07:32N 36°18' W 009°06'1111.2
2014-Aug-22 06:33N 36°20' W 009°19'1111.1
2014-Aug-22 05:32N 36°24' W 009°32'  

Dump ship's entire track history